createdAt,value
2023-02-01T00:01:53.634Z,3.35
2023-02-01T00:04:21.644Z,3.42
2023-02-01T00:06:49.316Z,3.17
2023-02-01T00:09:17.198Z,3.50
2023-02-01T00:11:46.259Z,3.13
2023-02-01T00:14:14.468Z,4.28
2023-02-01T00:16:42.135Z,3.10
2023-02-01T00:19:13.313Z,3.20
2023-02-01T00:21:41.142Z,2.58
2023-02-01T00:24:09.230Z,3.40
2023-02-01T00:26:38.859Z,2.60
2023-02-01T00:29:12.317Z,2.97
2023-02-01T00:31:40.449Z,3.33
2023-02-01T00:34:09.680Z,3.13
2023-02-01T00:36:37.437Z,2.92
2023-02-01T00:39:05.310Z,3.05
2023-02-01T00:41:33.038Z,3.13
2023-02-01T00:44:00.738Z,3.58
2023-02-01T00:46:30.199Z,3.00
2023-02-01T00:48:58.370Z,3.33
2023-02-01T00:51:30.178Z,2.78
2023-02-01T00:53:58.354Z,2.72
2023-02-01T00:56:28.363Z,3.00
2023-02-01T00:58:56.178Z,2.80
2023-02-01T01:01:25.212Z,2.63
2023-02-01T01:03:56.699Z,3.25
2023-02-01T01:06:25.812Z,3.53
2023-02-01T01:08:54.279Z,3.20
2023-02-01T01:11:24.820Z,2.78
2023-02-01T01:13:54.390Z,4.00
2023-02-01T01:16:24.339Z,3.25
2023-02-01T01:18:52.184Z,3.15
2023-02-01T01:21:21.406Z,3.00
2023-02-01T01:23:49.523Z,2.97
2023-02-01T01:26:18.900Z,3.45
2023-02-01T01:28:47.095Z,3.80
2023-02-01T01:31:17.133Z,3.33
2023-02-01T01:33:45.997Z,3.33
2023-02-01T01:36:14.434Z,3.10
2023-02-01T01:38:44.645Z,3.22
2023-02-01T01:41:17.156Z,3.55
2023-02-01T01:43:50.803Z,3.85
2023-02-01T01:46:21.350Z,3.35
2023-02-01T01:48:52.879Z,3.58
2023-02-01T01:51:25.211Z,3.75
2023-02-01T01:54:01.447Z,3.15
2023-02-01T01:56:32.329Z,3.88
2023-02-01T01:59:00.707Z,3.33
2023-02-01T02:01:29.900Z,3.40
2023-02-01T02:03:58.844Z,3.53
2023-02-01T02:06:36.795Z,3.85
2023-02-01T02:09:07.161Z,3.70
2023-02-01T02:11:35.521Z,3.40
2023-02-01T02:14:05.687Z,3.67
2023-02-01T02:16:47.897Z,3.25
2023-02-01T02:19:49.296Z,3.10
2023-02-01T02:22:37.946Z,3.97
2023-02-01T02:25:46.541Z,3.05
2023-02-01T02:28:29.679Z,3.58
2023-02-01T02:31:27.211Z,3.70
2023-02-01T02:34:06.456Z,3.42
2023-02-01T02:36:44.512Z,4.13
2023-02-01T02:39:23.585Z,3.58
2023-02-01T02:42:18.851Z,3.42
2023-02-01T02:45:19.641Z,4.25
2023-02-01T02:47:56.998Z,3.70
2023-02-01T02:50:48.819Z,3.08
2023-02-01T02:53:37.691Z,3.90
2023-02-01T02:56:26.643Z,3.17
2023-02-01T02:59:13.535Z,3.55
2023-02-01T03:01:59.692Z,3.60
2023-02-01T03:04:27.551Z,3.50
2023-02-01T03:06:56.820Z,3.00
2023-02-01T03:09:32.757Z,3.55
2023-02-01T03:12:23.398Z,3.65
2023-02-01T03:14:58.001Z,3.65
2023-02-01T03:17:32.548Z,2.70
2023-02-01T03:20:02.726Z,2.85
2023-02-01T03:22:35.019Z,3.67
2023-02-01T03:25:07.875Z,2.97
2023-02-01T03:27:41.547Z,3.30
2023-02-01T03:30:18.858Z,3.25
2023-02-01T03:32:59.989Z,3.08
2023-02-01T03:35:34.737Z,3.33
2023-02-01T03:38:14.746Z,2.78
2023-02-01T03:40:47.501Z,3.17
2023-02-01T03:43:20.756Z,2.67
2023-02-01T03:45:54.501Z,3.28
2023-02-01T03:48:25.026Z,3.13
2023-02-01T03:50:58.734Z,2.83
2023-02-01T03:53:30.182Z,2.72
2023-02-01T03:55:59.082Z,3.70
2023-02-01T03:58:26.883Z,2.67
2023-02-01T04:00:57.403Z,3.08
2023-02-01T04:03:27.013Z,2.58
2023-02-01T04:05:55.670Z,2.53
2023-02-01T04:08:28.377Z,2.15
2023-02-01T04:10:56.211Z,2.65
2023-02-01T04:13:23.952Z,3.17
2023-02-01T04:15:51.834Z,2.83
2023-02-01T04:18:19.688Z,2.83
2023-02-01T04:20:47.425Z,2.45
2023-02-01T04:23:16.748Z,2.67
2023-02-01T04:25:45.977Z,2.95
2023-02-01T04:28:14.142Z,2.60
2023-02-01T04:30:42.074Z,2.75
2023-02-01T04:33:09.827Z,2.83
2023-02-01T04:35:37.563Z,2.78
2023-02-01T04:38:05.312Z,3.10
2023-02-01T04:40:33.073Z,2.67
2023-02-01T04:43:02.633Z,3.10
2023-02-01T04:45:30.492Z,3.47
2023-02-01T04:47:58.363Z,2.88
2023-02-01T04:50:26.275Z,3.00
2023-02-01T04:52:54.054Z,3.38
2023-02-01T04:55:21.802Z,2.80
2023-02-01T04:57:49.564Z,3.38
2023-02-01T05:00:19.745Z,3.65
2023-02-01T05:02:47.626Z,3.72
2023-02-01T05:05:15.667Z,3.10
2023-02-01T05:07:43.618Z,2.95
2023-02-01T05:10:12.342Z,3.50
2023-02-01T05:12:57.635Z,3.28
2023-02-01T05:15:26.831Z,3.15
2023-02-01T05:17:54.724Z,3.80
2023-02-01T05:20:22.746Z,3.10
2023-02-01T05:22:50.855Z,2.72
2023-02-01T05:25:19.901Z,3.17
2023-02-01T05:27:47.687Z,2.67
2023-02-01T05:30:16.406Z,2.92
2023-02-01T05:32:45.559Z,3.08
2023-02-01T05:35:13.457Z,2.40
2023-02-01T05:37:41.306Z,2.63
2023-02-01T05:40:10.236Z,3.65
2023-02-01T05:42:38.072Z,3.28
2023-02-01T05:45:08.535Z,3.08
2023-02-01T05:47:36.381Z,3.00
2023-02-01T05:50:07.495Z,3.45
2023-02-01T05:52:35.290Z,3.10
2023-02-01T05:55:03.075Z,2.95
2023-02-01T05:57:31.124Z,3.72
2023-02-01T06:00:00.440Z,3.28
2023-02-01T06:02:28.643Z,2.67
2023-02-01T06:04:56.391Z,3.40
2023-02-01T06:07:27.131Z,3.72
2023-02-01T06:09:55.989Z,3.50
2023-02-01T06:12:23.709Z,3.20
2023-02-01T06:14:51.472Z,3.10
2023-02-01T06:17:19.842Z,3.38
2023-02-01T06:19:49.324Z,3.08
2023-02-01T06:22:17.144Z,3.83
2023-02-01T06:24:46.319Z,3.47
2023-02-01T06:27:14.242Z,3.70
2023-02-01T06:29:42.180Z,3.28
2023-02-01T06:32:10.139Z,3.13
2023-02-01T06:34:38.247Z,3.47
2023-02-01T06:37:06.084Z,2.80
2023-02-01T06:39:33.931Z,3.38
2023-02-01T06:42:03.113Z,3.60
2023-02-01T06:44:30.899Z,3.10
2023-02-01T06:46:58.769Z,2.75
2023-02-01T06:49:26.533Z,3.17
2023-02-01T06:51:54.287Z,2.65
2023-02-01T06:54:22.106Z,3.47
2023-02-01T06:56:50.047Z,3.47
2023-02-01T06:59:19.303Z,3.20
2023-02-01T07:01:47.223Z,3.40
2023-02-01T07:04:15.192Z,3.17
2023-02-01T07:06:43.092Z,2.92
2023-02-01T07:09:13.178Z,3.92
2023-02-01T07:11:44.060Z,4.10
2023-02-01T07:14:12.206Z,3.47
2023-02-01T07:16:41.416Z,3.25
2023-02-01T07:19:09.289Z,3.35
2023-02-01T07:21:37.056Z,3.40
2023-02-01T07:24:05.411Z,2.83
2023-02-01T07:26:33.440Z,3.70
2023-02-01T07:29:01.215Z,3.47
2023-02-01T07:31:29.971Z,3.63
2023-02-01T07:33:59.553Z,3.58
2023-02-01T07:36:27.333Z,2.83
2023-02-01T07:38:56.853Z,3.47
2023-02-01T07:41:25.076Z,3.42
2023-02-01T07:43:54.743Z,3.15
2023-02-01T07:46:22.663Z,2.40
2023-02-01T07:48:50.678Z,2.90
2023-02-01T07:51:19.817Z,2.72
2023-02-01T07:53:47.912Z,2.97
2023-02-01T07:56:18.021Z,3.55
2023-02-01T07:58:49.984Z,2.65
2023-02-01T08:01:21.032Z,3.20
2023-02-01T08:03:49.862Z,4.10
2023-02-01T08:06:20.482Z,3.05
2023-02-01T08:08:48.416Z,3.00
2023-02-01T08:11:16.879Z,3.60
2023-02-01T08:13:45.085Z,4.97
2023-02-01T08:16:14.923Z,2.92
2023-02-01T08:18:43.156Z,3.20
2023-02-01T08:21:13.073Z,3.08
2023-02-01T08:23:43.840Z,3.08
2023-02-01T08:26:15.313Z,3.13
2023-02-01T08:28:45.247Z,2.80
2023-02-01T08:31:16.309Z,3.03
2023-02-01T08:33:44.882Z,3.10
2023-02-01T08:36:13.467Z,3.40
2023-02-01T08:38:42.712Z,3.35
2023-02-01T08:41:13.062Z,2.95
2023-02-01T08:43:41.084Z,3.45
2023-02-01T08:46:10.070Z,3.65
2023-02-01T08:48:38.244Z,3.78
2023-02-01T08:51:07.885Z,3.25
2023-02-01T08:53:36.899Z,3.20
2023-02-01T08:56:08.006Z,3.22
2023-02-01T08:58:35.856Z,3.58
2023-02-01T09:01:05.762Z,3.40
2023-02-01T09:03:33.763Z,3.08
2023-02-01T09:06:03.141Z,3.30
2023-02-01T09:08:31.104Z,3.17
2023-02-01T09:11:03.456Z,3.30
2023-02-01T09:13:34.679Z,2.80
2023-02-01T09:16:02.575Z,2.92
2023-02-01T09:18:30.416Z,3.53
2023-02-01T09:20:58.466Z,3.25
2023-02-01T09:23:26.474Z,3.40
2023-02-01T09:25:54.254Z,3.42
2023-02-01T09:28:22.133Z,3.15
2023-02-01T09:30:51.243Z,3.08
2023-02-01T09:33:19.370Z,3.42
2023-02-01T09:35:47.117Z,3.75
2023-02-01T09:38:14.976Z,3.08
2023-02-01T09:40:48.311Z,3.45
2023-02-01T09:43:27.363Z,3.00
2023-02-01T09:46:03.834Z,3.30
2023-02-01T09:48:36.636Z,2.97
2023-02-01T09:51:08.920Z,3.35
2023-02-01T09:53:39.936Z,3.38
2023-02-01T09:56:14.262Z,3.38
2023-02-01T09:58:46.356Z,3.10
2023-02-01T10:01:21.217Z,3.25
2023-02-01T10:03:49.718Z,3.00
2023-02-01T10:06:39.522Z,2.83
2023-02-01T10:09:22.502Z,3.22
2023-02-01T10:12:06.601Z,3.30
2023-02-01T10:14:49.522Z,3.90
2023-02-01T10:17:33.900Z,2.90
2023-02-01T10:20:11.149Z,3.22
2023-02-01T10:23:05.309Z,2.85
2023-02-01T10:25:38.039Z,3.13
2023-02-01T10:28:06.183Z,2.90
2023-02-01T10:30:41.445Z,3.20
2023-02-01T10:33:17.641Z,2.78
2023-02-01T10:35:47.827Z,3.08
2023-02-01T10:38:25.324Z,3.25
2023-02-01T10:40:55.144Z,2.80
2023-02-01T10:43:23.371Z,2.60
2023-02-01T10:45:51.205Z,3.75
2023-02-01T10:48:20.608Z,3.10
2023-02-01T10:50:53.662Z,2.95
2023-02-01T10:53:25.646Z,2.85
2023-02-01T10:55:55.080Z,3.10
2023-02-01T10:58:29.327Z,2.90
2023-02-01T11:01:00.153Z,2.75
2023-02-01T11:03:42.110Z,2.90
2023-02-01T11:06:20.214Z,3.10
2023-02-01T11:08:49.976Z,2.80
2023-02-01T11:11:19.414Z,3.17
2023-02-01T11:13:54.760Z,3.72
2023-02-01T11:16:22.862Z,3.65
2023-02-01T11:18:56.793Z,3.78
2023-02-01T11:21:25.087Z,2.92
2023-02-01T11:23:52.971Z,3.30
2023-02-01T11:26:25.395Z,4.28
2023-02-01T11:28:58.291Z,2.78
2023-02-01T11:31:27.230Z,3.28
2023-02-01T11:34:08.012Z,2.60
2023-02-01T11:36:38.859Z,2.83
2023-02-01T11:39:17.688Z,2.47
2023-02-01T11:41:59.109Z,3.15
2023-02-01T11:44:32.987Z,2.92
2023-02-01T11:47:21.237Z,3.28
2023-02-01T11:49:51.716Z,4.03
2023-02-01T11:52:31.930Z,3.38
2023-02-01T11:55:22.468Z,2.83
2023-02-01T11:58:02.292Z,3.47
2023-02-01T12:00:47.185Z,3.13
2023-02-01T12:03:42.385Z,2.72
2023-02-01T12:06:20.087Z,2.97
2023-02-01T12:09:10.155Z,3.88
2023-02-01T12:12:01.114Z,3.58
2023-02-01T12:14:49.029Z,3.13
2023-02-01T12:17:54.641Z,2.55
2023-02-01T12:20:35.904Z,3.17
2023-02-01T12:23:19.259Z,3.20
2023-02-01T12:26:09.888Z,3.22
2023-02-01T12:29:05.794Z,2.85
2023-02-01T12:32:04.503Z,3.85
2023-02-01T12:34:59.222Z,3.45
2023-02-01T12:37:45.302Z,4.10
2023-02-01T12:40:29.136Z,3.95
2023-02-01T12:43:03.505Z,3.33
2023-02-01T12:45:35.418Z,3.97
2023-02-01T12:48:21.846Z,3.50
2023-02-01T12:50:54.877Z,3.33
2023-02-01T12:53:29.411Z,4.13
2023-02-01T12:56:03.861Z,3.70
2023-02-01T12:58:50.521Z,3.75
2023-02-01T13:01:23.287Z,4.63
2023-02-01T13:04:00.951Z,3.85
2023-02-01T13:06:33.393Z,4.80
2023-02-01T13:09:05.790Z,4.50
2023-02-01T13:11:37.344Z,4.10
2023-02-01T13:14:13.110Z,4.07
2023-02-01T13:16:43.854Z,3.90
2023-02-01T13:19:18.385Z,4.32
2023-02-01T13:21:49.957Z,4.20
2023-02-01T13:24:32.371Z,3.83
2023-02-01T13:27:02.888Z,3.80
2023-02-01T13:29:31.993Z,3.97
2023-02-01T13:32:18.326Z,4.45
2023-02-01T13:35:31.477Z,3.90
2023-02-01T13:38:23.039Z,3.78
2023-02-01T13:41:04.707Z,3.53
2023-02-01T13:43:34.951Z,4.15
2023-02-01T13:46:07.407Z,3.65
2023-02-01T13:48:40.958Z,3.65
2023-02-01T13:51:09.797Z,3.53
2023-02-01T13:53:40.582Z,3.83
2023-02-01T13:56:13.835Z,3.72
2023-02-01T13:58:44.564Z,4.03
2023-02-01T14:01:37.168Z,3.10
2023-02-01T14:04:07.437Z,3.63
2023-02-01T14:06:48.365Z,3.30
2023-02-01T14:09:33.162Z,3.78
2023-02-01T14:12:39.336Z,3.33
2023-02-01T14:15:27.592Z,3.33
2023-02-01T14:17:56.194Z,2.95
2023-02-01T14:20:44.575Z,2.90
2023-02-01T14:23:19.049Z,2.78
2023-02-01T14:26:04.072Z,2.17
2023-02-01T14:28:32.484Z,1.70
2023-02-01T14:31:01.802Z,1.85
2023-02-01T14:33:30.268Z,1.33
2023-02-01T14:36:09.324Z,1.50
2023-02-01T14:38:39.590Z,1.45
2023-02-01T14:41:27.625Z,1.45
2023-02-01T14:44:30.247Z,1.10
2023-02-01T14:47:35.811Z,1.25
2023-02-01T14:50:28.399Z,1.10
2023-02-01T14:53:17.484Z,1.30
2023-02-01T14:55:49.366Z,1.98
2023-02-01T14:58:33.466Z,1.75
2023-02-01T15:01:04.454Z,1.80
2023-02-01T15:03:51.971Z,1.90
2023-02-01T15:06:27.388Z,1.80
2023-02-01T15:08:58.008Z,1.85
2023-02-01T15:11:25.901Z,2.25
2023-02-01T15:13:56.506Z,1.98
2023-02-01T15:16:25.930Z,2.20
2023-02-01T15:21:51.073Z,2.10
2023-02-01T15:24:24.211Z,2.53
2023-02-01T15:26:53.089Z,2.65
2023-02-01T15:29:22.102Z,2.35
2023-02-01T15:31:51.961Z,2.15
2023-02-01T15:34:20.710Z,2.30
2023-02-01T15:37:02.512Z,1.52
2023-02-01T15:39:32.460Z,2.20
2023-02-01T15:42:03.913Z,2.00
2023-02-01T15:44:36.152Z,1.70
2023-02-01T15:47:11.087Z,1.90
2023-02-01T15:49:40.923Z,2.00
2023-02-01T15:52:23.022Z,1.92
2023-02-01T15:54:54.388Z,2.33
2023-02-01T15:57:31.118Z,1.73
2023-02-01T16:00:00.878Z,2.40
2023-02-01T16:02:34.669Z,2.30
2023-02-01T16:05:03.897Z,2.25
2023-02-01T16:07:34.595Z,2.88
2023-02-01T16:10:07.806Z,2.90
2023-02-01T16:12:48.794Z,2.80
2023-02-01T16:15:16.669Z,2.33
2023-02-01T16:17:44.821Z,3.40
2023-02-01T16:20:13.911Z,2.60
2023-02-01T16:22:43.062Z,3.53
2023-02-01T16:25:11.116Z,3.30
2023-02-01T16:27:38.912Z,3.10
2023-02-01T16:30:09.885Z,3.15
2023-02-01T16:32:39.196Z,3.03
2023-02-01T16:35:13.633Z,2.78
2023-02-01T16:37:42.792Z,2.53
2023-02-01T16:40:15.462Z,3.65
2023-02-01T16:42:43.251Z,2.53
2023-02-01T16:45:11.831Z,2.78
2023-02-01T16:47:42.234Z,2.53
2023-02-01T16:50:23.137Z,3.15
2023-02-01T16:52:54.136Z,2.80
2023-02-01T16:55:23.997Z,2.47
2023-02-01T16:57:52.103Z,2.85
2023-02-01T17:00:25.451Z,2.53
2023-02-01T17:02:54.546Z,2.67
2023-02-01T17:05:23.225Z,2.88
2023-02-01T17:07:51.398Z,3.00
2023-02-01T17:10:34.311Z,2.78
2023-02-01T17:13:03.332Z,3.53
2023-02-01T17:15:37.290Z,2.75
2023-02-01T17:18:05.478Z,3.22
2023-02-01T17:20:34.450Z,3.15
2023-02-01T17:23:02.719Z,3.13
2023-02-01T17:25:32.927Z,2.75
2023-02-01T17:28:00.928Z,3.35
2023-02-01T17:30:29.225Z,3.42
2023-02-01T17:32:57.111Z,3.67
2023-02-01T17:35:27.429Z,3.10
2023-02-01T17:37:56.133Z,3.30
2023-02-01T17:40:24.383Z,3.08
2023-02-01T17:42:57.512Z,3.63
2023-02-01T17:45:37.030Z,3.33
2023-02-01T17:48:06.525Z,3.42
2023-02-01T17:50:37.123Z,3.13
2023-02-01T17:53:06.021Z,2.80
2023-02-01T17:55:36.291Z,3.17
2023-02-01T17:58:05.591Z,2.17
2023-02-01T18:00:33.678Z,2.70
2023-02-01T18:03:02.155Z,3.20
2023-02-01T18:05:39.436Z,3.00
2023-02-01T18:08:07.617Z,3.22
2023-02-01T18:10:35.727Z,3.28
2023-02-01T18:13:05.168Z,3.05
2023-02-01T18:15:33.189Z,2.78
2023-02-01T18:18:00.923Z,3.10
2023-02-01T18:20:29.338Z,3.03
2023-02-01T18:22:57.167Z,3.05
2023-02-01T18:25:28.119Z,3.35
2023-02-01T18:27:57.222Z,3.92
2023-02-01T18:30:31.529Z,3.40
2023-02-01T18:32:59.328Z,3.80
2023-02-01T18:35:29.075Z,3.50
2023-02-01T18:37:58.015Z,2.88
2023-02-01T18:40:28.654Z,2.92
2023-02-01T18:42:56.737Z,3.42
2023-02-01T18:45:35.937Z,2.75
2023-02-01T18:48:05.727Z,2.95
2023-02-01T18:50:37.371Z,3.08
2023-02-01T18:53:07.958Z,2.47
2023-02-01T18:55:35.847Z,3.50
2023-02-01T18:58:07.080Z,2.50
2023-02-01T19:00:37.081Z,2.97
2023-02-01T19:03:05.047Z,4.03
2023-02-01T19:05:33.785Z,2.95
2023-02-01T19:08:01.785Z,2.65
2023-02-01T19:10:29.783Z,2.50
2023-02-01T19:12:58.458Z,3.00
2023-02-01T19:15:27.193Z,2.60
2023-02-01T19:17:57.037Z,2.97
2023-02-01T19:20:27.051Z,2.83
2023-02-01T19:22:55.352Z,3.22
2023-02-01T19:25:25.306Z,4.05
2023-02-01T19:27:54.053Z,3.63
2023-02-01T19:30:25.009Z,3.20
2023-02-01T19:32:53.331Z,3.58
2023-02-01T19:35:23.437Z,3.55
2023-02-01T19:37:51.415Z,3.05
2023-02-01T19:40:21.111Z,3.05
2023-02-01T19:42:49.418Z,2.50
2023-02-01T19:45:17.241Z,3.45
2023-02-01T19:47:45.087Z,2.97
2023-02-01T19:50:18.278Z,3.05
2023-02-01T19:52:47.729Z,3.58
2023-02-01T19:55:15.773Z,3.25
2023-02-01T19:57:44.058Z,3.20
2023-02-01T20:00:15.039Z,3.00
2023-02-01T20:02:43.849Z,2.83
2023-02-01T20:05:11.793Z,3.55
2023-02-01T20:07:40.084Z,3.45
2023-02-01T20:10:10.831Z,3.28
2023-02-01T20:12:38.621Z,2.78
2023-02-01T20:15:07.992Z,3.00
2023-02-01T20:17:36.387Z,3.75
2023-02-01T20:20:04.974Z,2.80
2023-02-01T20:22:32.837Z,2.47
2023-02-01T20:25:02.417Z,2.47
2023-02-01T20:27:32.408Z,2.50
2023-02-01T20:30:00.165Z,2.58
2023-02-01T20:32:28.054Z,2.95
2023-02-01T20:34:55.854Z,3.15
2023-02-01T20:37:23.673Z,2.80
2023-02-01T20:39:54.475Z,2.70
2023-02-01T20:42:22.368Z,2.75
2023-02-01T20:44:51.517Z,2.90
2023-02-01T20:47:19.347Z,2.78
2023-02-01T20:49:47.111Z,2.85
2023-02-01T20:52:15.007Z,3.60
2023-02-01T20:54:42.817Z,2.60
2023-02-01T20:57:10.607Z,2.63
2023-02-01T20:59:38.458Z,3.22
2023-02-01T21:02:08.669Z,2.50
2023-02-01T21:04:37.316Z,3.22
2023-02-01T21:07:05.072Z,2.30
2023-02-01T21:09:36.125Z,2.78
2023-02-01T21:12:05.138Z,3.33
2023-02-01T21:14:32.934Z,2.38
2023-02-01T21:17:00.758Z,2.90
2023-02-01T21:19:43.026Z,2.25
2023-02-01T21:22:11.361Z,2.53
2023-02-01T21:24:40.977Z,2.83
2023-02-01T21:27:17.002Z,3.00
2023-02-01T21:29:47.376Z,2.78
2023-02-01T21:32:15.390Z,2.40
2023-02-01T21:34:44.669Z,2.92
2023-02-01T21:37:12.437Z,2.72
2023-02-01T21:39:40.181Z,2.20
2023-02-01T21:42:17.652Z,2.05
2023-02-01T21:44:47.516Z,2.10
2023-02-01T21:47:17.181Z,1.98
2023-02-01T21:49:47.738Z,2.10
2023-02-01T21:52:17.185Z,2.10
2023-02-01T21:54:44.982Z,2.15
2023-02-01T21:57:12.980Z,2.45
2023-02-01T21:59:41.284Z,2.63
2023-02-01T22:02:13.869Z,3.55
2023-02-01T22:04:41.811Z,2.22
2023-02-01T22:07:11.548Z,2.47
2023-02-01T22:09:39.569Z,2.53
2023-02-01T22:12:08.421Z,2.03
2023-02-01T22:14:36.277Z,2.70
2023-02-01T22:17:04.313Z,2.75
2023-02-01T22:19:32.057Z,2.75
2023-02-01T22:21:59.915Z,2.28
2023-02-01T22:24:29.168Z,2.45
2023-02-01T22:26:56.957Z,2.17
2023-02-01T22:29:42.847Z,2.97
2023-02-01T22:32:12.047Z,2.90
2023-02-01T22:34:39.934Z,2.70
2023-02-01T22:37:07.699Z,2.60
2023-02-01T22:39:36.788Z,2.72
2023-02-01T22:42:04.662Z,2.45
2023-02-01T22:44:32.433Z,2.55
2023-02-01T22:47:00.263Z,2.90
2023-02-01T22:49:28.036Z,2.90
2023-02-01T22:51:55.792Z,2.83
2023-02-01T22:54:23.475Z,2.65
2023-02-01T22:56:52.731Z,2.70
2023-02-01T22:59:20.677Z,3.20
2023-02-01T23:01:48.534Z,3.10
2023-02-01T23:04:16.493Z,3.15
2023-02-01T23:06:44.247Z,2.90
2023-02-01T23:09:17.145Z,3.42
2023-02-01T23:11:45.159Z,3.35
2023-02-01T23:14:15.763Z,2.75
2023-02-01T23:16:45.874Z,3.00
2023-02-01T23:19:14.011Z,3.15
2023-02-01T23:21:42.433Z,3.40
2023-02-01T23:24:11.154Z,3.95
2023-02-01T23:26:39.977Z,2.95
2023-02-01T23:29:07.757Z,2.13
2023-02-01T23:31:37.115Z,3.42
2023-02-01T23:34:05.263Z,3.40
2023-02-01T23:36:34.211Z,3.33
2023-02-01T23:39:02.747Z,3.03
2023-02-01T23:41:31.703Z,3.15
2023-02-01T23:43:59.752Z,4.00
2023-02-01T23:46:30.954Z,3.63
2023-02-01T23:49:01.017Z,3.00
2023-02-01T23:51:29.921Z,3.22
2023-02-01T23:53:57.678Z,3.13
2023-02-01T23:56:26.998Z,3.53
2023-02-01T23:58:56.684Z,3.40
